Flight Track Log - Related Links

Times and Time Zones

All times are in EDT time to prevent confusion due to time zone crossing. See the SWA378 flight status page for this flight to view local times or setup timezone preferences in your user account.

Time Position Orientation Groundspeed Altitude Reporting Facility
EDT Latitude Longitude Course Direction KTS MPH feet Rate Location/Type
Wed 08:46:24 PM 36.8511 -76.2461 217° Southwest 185 213 3,600  Level Washington Center
Wed 08:47:25 PM 36.8111 -76.2819 216° Southwest 185 213 6,800 3,620 Climbing Washington Center
Wed 08:48:25 PM 36.7756 -76.3336 229° Southwest 213 245 10,900 3,098 Climbing Washington Center
Wed 08:49:27 PM 36.8189 -76.4039 308° West 307 353 13,100 1,646 Climbing Washington Center
Wed 08:50:18 PM 36.8747 -76.4825 312° West 367 422 14,000 482 Climbing Washington Center
Wed 08:51:19 PM 36.9364 -76.5689 312° West 385 443 14,000  Level Washington Center
Wed 08:52:20 PM 37.0025 -76.6581 313° West 378 435 14,000  Level Washington Center
Wed 08:53:18 PM 37.0683 -76.7503 312° West 361 415 14,000 151 Level Washington Center
Wed 08:54:19 PM 37.1342 -76.8450 311° West 361 415 14,300 992 Climbing Washington Center
Wed 08:55:19 PM 37.2019 -76.9400 312° West 361 415 16,000 857 Climbing Washington Center
Wed 08:56:18 PM 37.2781 -77.0508 311° West 369 425 16,000  Level Washington Center
Wed 08:57:20 PM 37.3689 -77.1075 334° Northwest 369 425 16,000  Level Washington Center
Wed 08:58:18 PM 37.4836 -77.1072 360° North 380 437 16,000  Level Washington Center
Wed 08:59:18 PM 37.5858 -77.1117 358° North 395 455 16,000  Level Washington Center
Wed 09:00:19 PM 37.6964 -77.1142 359° North 395 455 16,000  Level Washington Center
Wed 09:01:19 PM 37.8111 -77.1189 358° North 400 460 16,000  Level Washington Center
Wed 09:02:18 PM 37.9194 -77.1211 359° North 400 460 16,000  Level Washington Center
Wed 09:03:19 PM 38.0361 -77.1261 358° North 400 460 16,000  Level Washington Center
Wed 09:04:19 PM 38.1489 -77.1311 358° North 400 460 16,000 -101 Level Washington Center
Wed 09:05:18 PM 38.2592 -77.1308 360° North 400 460 15,800 -504 Descending Washington Center
Wed 09:06:18 PM 38.3803 -77.1331 359° North 400 460 15,000 -893 Descending Washington Center
Wed 09:07:19 PM 38.4606 -77.0447 41° Northeast 369 425 14,000 -1,475 Descending Washington Center
Wed 09:08:20 PM 38.5367 -76.9506 44° Northeast 369 425 12,000 -1,714 Descending Washington Center
Wed 09:09:18 PM 38.6086 -76.8642 43° Northeast 358 412 10,600 -1,059 Descending Washington Center
Wed 09:10:19 PM 38.6739 -76.7831 44° Northeast 340 391 9,900 -793 Descending Washington Center
Wed 09:11:19 PM 38.7183 -76.7119 51° Northeast 314 361 9,000 -1,361 Descending Washington Center
Wed 09:12:18 PM 38.7589 -76.6272 58° Northeast 290 334 7,200 -1,912 Descending Washington Center
Wed 09:12:50 PM 38.8167 -76.6167 North 294 338 6,100 -1,600 Descending Potomac TRACON
Wed 09:13:18 PM 38.8294 -76.6389 306° West 226 260 5,600 -1,041 Descending Washington Center
Wed 09:14:51 PM 38.9500 -76.7167 333° Northwest 272 313 4,000 -627 Descending Potomac TRACON
Wed 09:15:51 PM 39.0000 -76.7667 322° Northwest 272 313 4,000 -450 Level Potomac TRACON
Wed 09:16:51 PM 39.0667 -76.8167 330° Northwest 275 316 3,100 -1,000 Descending Potomac TRACON
Wed 09:17:51 PM 39.1333 -76.8500 339° North 262 302 2,000 -550 Descending Potomac TRACON
Wed 09:18:51 PM 39.1833 -76.8333 14° North 206 237 2,000 -350 Level Potomac TRACON
Wed 09:19:51 PM 39.1833 -76.7667 90° East 177 204 1,300 -700 Descending Potomac TRACON
Wed 09:20:51 PM 39.1833 -76.7167 90° East 139 160 600 -700 Descending Potomac TRACON
Wed 09:22:00 PM 39.1667 -76.6667 102° East  Level FlightAware Approximate
Wed 09:29:00 PM 39.1754 -76.6683 102° East  Level Estimated
Wed 09:30:00 PM 39.1754 -76.6683 102° East  Level Estimated
Wed 09:31:00 PM 39.1754 -76.6683 102° East  Level Estimated
Wed 09:32:00 PM 39.1754 -76.6683 102° East  Level Estimated

Login

Don't have an account? Register now (free) for customized features, flight alerts, and more!